sensor_id;sensor_type;location;lat;lon;timestamp;pressure;altitude;pressure_sealevel;temperature
6550;BMP280;15142;48.888;9.134;2023-05-10T00:00:24;97466.34;;;13.44
6550;BMP280;15142;48.888;9.134;2023-05-10T00:02:52;97471.50;;;13.36
6550;BMP280;15142;48.888;9.134;2023-05-10T00:05:21;97471.31;;;13.32
6550;BMP280;15142;48.888;9.134;2023-05-10T00:07:50;97474.84;;;13.19
6550;BMP280;15142;48.888;9.134;2023-05-10T00:10:19;97472.84;;;13.16
6550;BMP280;15142;48.888;9.134;2023-05-10T00:12:47;97470.47;;;13.12
6550;BMP280;15142;48.888;9.134;2023-05-10T00:15:18;97469.69;;;13.11
6550;BMP280;15142;48.888;9.134;2023-05-10T00:17:47;97471.50;;;13.11
6550;BMP280;15142;48.888;9.134;2023-05-10T00:20:16;97460.97;;;13.04
6550;BMP280;15142;48.888;9.134;2023-05-10T00:22:44;97464.25;;;13.04
6550;BMP280;15142;48.888;9.134;2023-05-10T00:25:13;97468.19;;;13.02
6550;BMP280;15142;48.888;9.134;2023-05-10T00:27:41;97465.47;;;12.98
6550;BMP280;15142;48.888;9.134;2023-05-10T00:30:10;97465.19;;;12.91
6550;BMP280;15142;48.888;9.134;2023-05-10T00:32:42;97463.81;;;12.94
6550;BMP280;15142;48.888;9.134;2023-05-10T00:35:13;97462.16;;;12.89
6550;BMP280;15142;48.888;9.134;2023-05-10T00:37:41;97456.59;;;12.87
6550;BMP280;15142;48.888;9.134;2023-05-10T00:40:11;97460.47;;;12.85
6550;BMP280;15142;48.888;9.134;2023-05-10T00:42:43;97457.91;;;12.85
6550;BMP280;15142;48.888;9.134;2023-05-10T00:45:12;97460.47;;;12.85
6550;BMP280;15142;48.888;9.134;2023-05-10T00:47:43;97465.13;;;12.83
6550;BMP280;15142;48.888;9.134;2023-05-10T00:50:12;97473.59;;;12.84
6550;BMP280;15142;48.888;9.134;2023-05-10T00:52:41;97470.59;;;12.82
6550;BMP280;15142;48.888;9.134;2023-05-10T00:55:11;97494.69;;;12.81
6550;BMP280;15142;48.888;9.134;2023-05-10T00:57:40;97489.13;;;12.87
6550;BMP280;15142;48.888;9.134;2023-05-10T01:00:10;97493.31;;;12.83
6550;BMP280;15142;48.888;9.134;2023-05-10T01:02:46;97492.41;;;12.79
6550;BMP280;15142;48.888;9.134;2023-05-10T01:05:15;97499.06;;;12.80
6550;BMP280;15142;48.888;9.134;2023-05-10T01:07:44;97495.44;;;12.81
6550;BMP280;15142;48.888;9.134;2023-05-10T01:10:13;97499.81;;;12.81
6550;BMP280;15142;48.888;9.134;2023-05-10T01:12:45;97499.19;;;12.84
6550;BMP280;15142;48.888;9.134;2023-05-10T01:15:14;97497.38;;;12.84
6550;BMP280;15142;48.888;9.134;2023-05-10T01:17:48;97499.94;;;12.84
6550;BMP280;15142;48.888;9.134;2023-05-10T01:20:17;97495.59;;;12.85
6550;BMP280;15142;48.888;9.134;2023-05-10T01:26:06;97498.88;;;12.85
6550;BMP280;15142;48.888;9.134;2023-05-10T01:28:54;97493.31;;;12.83
6550;BMP280;15142;48.888;9.134;2023-05-10T01:34:17;97499.78;;;12.89
6550;BMP280;15142;48.888;9.134;2023-05-10T01:36:51;97503.53;;;12.83
6550;BMP280;15142;48.888;9.134;2023-05-10T01:39:25;97497.09;;;12.86
6550;BMP280;15142;48.888;9.134;2023-05-10T01:41:56;97492.56;;;12.83
6550;BMP280;15142;48.888;9.134;2023-05-10T01:44:37;97498.00;;;12.81
6550;BMP280;15142;48.888;9.134;2023-05-10T01:47:10;97496.31;;;12.85
6550;BMP280;15142;48.888;9.134;2023-05-10T01:49:44;97504.78;;;12.86
6550;BMP280;15142;48.888;9.134;2023-05-10T01:52:17;97501.91;;;12.87
6550;BMP280;15142;48.888;9.134;2023-05-10T01:54:50;97502.97;;;12.86
6550;BMP280;15142;48.888;9.134;2023-05-10T01:57:22;97507.34;;;12.86
6550;BMP280;15142;48.888;9.134;2023-05-10T01:59:53;97512.75;;;12.84
6550;BMP280;15142;48.888;9.134;2023-05-10T02:02:24;97513.03;;;12.83
6550;BMP280;15142;48.888;9.134;2023-05-10T02:04:57;97513.47;;;12.76
6550;BMP280;15142;48.888;9.134;2023-05-10T02:07:26;97519.34;;;12.77
6550;BMP280;15142;48.888;9.134;2023-05-10T02:09:58;97514.56;;;12.75
6550;BMP280;15142;48.888;9.134;2023-05-10T02:12:27;97518.59;;;12.76
6550;BMP280;15142;48.888;9.134;2023-05-10T02:14:57;97515.75;;;12.78
6550;BMP280;15142;48.888;9.134;2023-05-10T02:17:28;97522.53;;;12.82
6550;BMP280;15142;48.888;9.134;2023-05-10T02:20:01;97516.63;;;12.73
6550;BMP280;15142;48.888;9.134;2023-05-10T02:22:31;97515.91;;;12.73
6550;BMP280;15142;48.888;9.134;2023-05-10T02:25:00;97518.16;;;12.74
6550;BMP280;15142;48.888;9.134;2023-05-10T02:27:30;97516.63;;;12.73
6550;BMP280;15142;48.888;9.134;2023-05-10T02:29:59;97522.81;;;12.72
6550;BMP280;15142;48.888;9.134;2023-05-10T02:32:28;97527.34;;;12.75
6550;BMP280;15142;48.888;9.134;2023-05-10T02:35:01;97531.13;;;12.78
6550;BMP280;15142;48.888;9.134;2023-05-10T02:37:31;97533.38;;;12.79
6550;BMP280;15142;48.888;9.134;2023-05-10T02:40:05;97542.59;;;12.80
6550;BMP280;15142;48.888;9.134;2023-05-10T02:42:36;97548.16;;;12.82
6550;BMP280;15142;48.888;9.134;2023-05-10T02:45:10;97541.53;;;12.81
6550;BMP280;15142;48.888;9.134;2023-05-10T02:47:41;97546.97;;;12.88
6550;BMP280;15142;48.888;9.134;2023-05-10T02:50:13;97538.84;;;12.86
6550;BMP280;15142;48.888;9.134;2023-05-10T02:52:46;97548.44;;;12.89
6550;BMP280;15142;48.888;9.134;2023-05-10T02:55:16;97544.72;;;12.86
6550;BMP280;15142;48.888;9.134;2023-05-10T02:57:51;97544.72;;;12.86
6550;BMP280;15142;48.888;9.134;2023-05-10T03:00:21;97547.13;;;12.91
6550;BMP280;15142;48.888;9.134;2023-05-10T03:02:49;97541.41;;;12.86
6550;BMP280;15142;48.888;9.134;2023-05-10T03:05:21;97541.88;;;12.88
6550;BMP280;15142;48.888;9.134;2023-05-10T03:07:49;97549.69;;;12.91
6550;BMP280;15142;48.888;9.134;2023-05-10T03:10:20;97543.03;;;12.90
6550;BMP280;15142;48.888;9.134;2023-05-10T03:13:07;97549.22;;;12.89
6550;BMP280;15142;48.888;9.134;2023-05-10T03:15:47;97550.72;;;12.90
6550;BMP280;15142;48.888;9.134;2023-05-10T03:18:22;97554.03;;;12.91
6550;BMP280;15142;48.888;9.134;2023-05-10T03:20:57;97557.06;;;12.93
6550;BMP280;15142;48.888;9.134;2023-05-10T03:23:34;97560.41;;;12.93
6550;BMP280;15142;48.888;9.134;2023-05-10T03:26:04;97564.75;;;12.93
6550;BMP280;15142;48.888;9.134;2023-05-10T03:28:33;97567.03;;;12.94
6550;BMP280;15142;48.888;9.134;2023-05-10T03:31:04;97564.75;;;12.93
6550;BMP280;15142;48.888;9.134;2023-05-10T03:33:35;97559.63;;;12.93
6550;BMP280;15142;48.888;9.134;2023-05-10T03:36:07;97567.47;;;12.96
6550;BMP280;15142;48.888;9.134;2023-05-10T03:38:36;97559.63;;;12.93
6550;BMP280;15142;48.888;9.134;2023-05-10T03:41:05;97555.09;;;12.90
6550;BMP280;15142;48.888;9.134;2023-05-10T03:43:33;97564.75;;;12.93
6550;BMP280;15142;48.888;9.134;2023-05-10T03:46:03;97569.13;;;12.92
6550;BMP280;15142;48.888;9.134;2023-05-10T03:48:33;97566.84;;;12.91
6550;BMP280;15142;48.888;9.134;2023-05-10T03:51:01;97562.63;;;12.95
6550;BMP280;15142;48.888;9.134;2023-05-10T03:53:33;97563.25;;;12.92
6550;BMP280;15142;48.888;9.134;2023-05-10T03:56:01;97570.66;;;12.93
6550;BMP280;15142;48.888;9.134;2023-05-10T03:58:30;97570.19;;;12.91
6550;BMP280;15142;48.888;9.134;2023-05-10T04:00:59;97574.25;;;12.92
6550;BMP280;15142;48.888;9.134;2023-05-10T04:03:28;97577.09;;;12.91
6550;BMP280;15142;48.888;9.134;2023-05-10T04:06:00;97576.34;;;12.90
6550;BMP280;15142;48.888;9.134;2023-05-10T04:08:29;97577.56;;;12.93
6550;BMP280;15142;48.888;9.134;2023-05-10T04:11:08;97579.53;;;12.96
6550;BMP280;15142;48.888;9.134;2023-05-10T04:13:38;97571.41;;;12.94
6550;BMP280;15142;48.888;9.134;2023-05-10T04:16:06;97576.97;;;13.04
6550;BMP280;15142;48.888;9.134;2023-05-10T04:18:35;97576.81;;;13.01
6550;BMP280;15142;48.888;9.134;2023-05-10T04:21:11;97580.00;;;12.98
6550;BMP280;15142;48.888;9.134;2023-05-10T04:23:40;97573.34;;;12.97
6550;BMP280;15142;48.888;9.134;2023-05-10T04:26:11;97582.22;;;12.91
6550;BMP280;15142;48.888;9.134;2023-05-10T04:28:40;97575.78;;;12.93
6550;BMP280;15142;48.888;9.134;2023-05-10T04:31:09;97575.34;;;13.00
6550;BMP280;15142;48.888;9.134;2023-05-10T04:33:38;97584.06;;;12.99
6550;BMP280;15142;48.888;9.134;2023-05-10T04:36:07;97594.16;;;13.04
6550;BMP280;15142;48.888;9.134;2023-05-10T04:38:35;97588.56;;;13.02
6550;BMP280;15142;48.888;9.134;2023-05-10T04:41:04;97588.56;;;13.02
6550;BMP280;15142;48.888;9.134;2023-05-10T04:43:37;97583.91;;;13.04
6550;BMP280;15142;48.888;9.134;2023-05-10T04:46:05;97585.88;;;13.07
6550;BMP280;15142;48.888;9.134;2023-05-10T04:48:34;97592.06;;;13.06
6550;BMP280;15142;48.888;9.134;2023-05-10T04:51:03;97598.84;;;13.10
6550;BMP280;15142;48.888;9.134;2023-05-10T04:53:32;97591.91;;;13.11
6550;BMP280;15142;48.888;9.134;2023-05-10T04:56:01;97595.53;;;13.10
6550;BMP280;15142;48.888;9.134;2023-05-10T04:58:29;97604.59;;;13.15
6550;BMP280;15142;48.888;9.134;2023-05-10T05:01:07;97606.25;;;13.20
6550;BMP280;15142;48.888;9.134;2023-05-10T05:03:36;97599.03;;;13.22
6550;BMP280;15142;48.888;9.134;2023-05-10T05:06:05;97602.34;;;13.22
6550;BMP280;15142;48.888;9.134;2023-05-10T05:08:34;97603.56;;;13.25
6550;BMP280;15142;48.888;9.134;2023-05-10T05:11:03;97612.75;;;13.34
6550;BMP280;15142;48.888;9.134;2023-05-10T05:13:32;97616.53;;;13.37
6550;BMP280;15142;48.888;9.134;2023-05-10T05:16:00;97613.09;;;13.41
6550;BMP280;15142;48.888;9.134;2023-05-10T05:18:32;97616.97;;;13.47
6550;BMP280;15142;48.888;9.134;2023-05-10T05:21:01;97619.69;;;13.50
6550;BMP280;15142;48.888;9.134;2023-05-10T05:23:29;97622.44;;;13.54
6550;BMP280;15142;48.888;9.134;2023-05-10T05:25:58;97620.16;;;13.61
6550;BMP280;15142;48.888;9.134;2023-05-10T05:28:26;97622.13;;;13.64
6550;BMP280;15142;48.888;9.134;2023-05-10T05:30:58;97625.31;;;13.69
6550;BMP280;15142;48.888;9.134;2023-05-10T05:33:27;97624.53;;;13.69
6550;BMP280;15142;48.888;9.134;2023-05-10T05:36:00;97623.16;;;13.63
6550;BMP280;15142;48.888;9.134;2023-05-10T05:38:29;97625.63;;;13.68
6550;BMP280;15142;48.888;9.134;2023-05-10T05:40:57;97626.66;;;13.75
6550;BMP280;15142;48.888;9.134;2023-05-10T05:43:29;97622.13;;;13.80
6550;BMP280;15142;48.888;9.134;2023-05-10T05:45:57;97628.34;;;13.79
6550;BMP280;15142;48.888;9.134;2023-05-10T05:48:26;97634.97;;;13.72
6550;BMP280;15142;48.888;9.134;2023-05-10T05:50:55;97630.59;;;13.73
6550;BMP280;15142;48.888;9.134;2023-05-10T05:53:27;97629.81;;;13.80
6550;BMP280;15142;48.888;9.134;2023-05-10T05:55:57;97636.47;;;13.81
6550;BMP280;15142;48.888;9.134;2023-05-10T05:58:25;97633.72;;;13.86
6550;BMP280;15142;48.888;9.134;2023-05-10T06:00:54;97639.03;;;13.81
6550;BMP280;15142;48.888;9.134;2023-05-10T06:03:22;97626.97;;;13.90
6550;BMP280;15142;48.888;9.134;2023-05-10T06:05:51;97634.06;;;13.93
6550;BMP280;15142;48.888;9.134;2023-05-10T06:08:20;97636.91;;;14.00
6550;BMP280;15142;48.888;9.134;2023-05-10T06:10:51;97641.75;;;13.93
6550;BMP280;15142;48.888;9.134;2023-05-10T06:13:19;97631.31;;;13.98
6550;BMP280;15142;48.888;9.134;2023-05-10T06:15:48;97643.84;;;14.08
6550;BMP280;15142;48.888;9.134;2023-05-10T06:18:16;97643.53;;;14.09
6550;BMP280;15142;48.888;9.134;2023-05-10T06:20:45;97637.03;;;14.12
6550;BMP280;15142;48.888;9.134;2023-05-10T06:23:14;97653.94;;;14.21
6550;BMP280;15142;48.888;9.134;2023-05-10T06:25:42;97644.41;;;14.22
6550;BMP280;15142;48.888;9.134;2023-05-10T06:28:13;97656.34;;;14.26
6550;BMP280;15142;48.888;9.134;2023-05-10T06:30:42;97653.66;;;14.23
6550;BMP280;15142;48.888;9.134;2023-05-10T06:33:11;97659.94;;;14.33
6550;BMP280;15142;48.888;9.134;2023-05-10T06:35:39;97659.34;;;14.36
6550;BMP280;15142;48.888;9.134;2023-05-10T06:38:08;97660.84;;;14.37
6550;BMP280;15142;48.888;9.134;2023-05-10T06:40:36;97656.44;;;14.38
6550;BMP280;15142;48.888;9.134;2023-05-10T06:43:05;97655.84;;;14.32
6550;BMP280;15142;48.888;9.134;2023-05-10T06:45:36;97658.44;;;14.41
6550;BMP280;15142;48.888;9.134;2023-05-10T06:48:05;97653.72;;;14.51
6550;BMP280;15142;48.888;9.134;2023-05-10T06:50:34;97652.19;;;14.50
6550;BMP280;15142;48.888;9.134;2023-05-10T06:53:02;97663.97;;;14.59
6550;BMP280;15142;48.888;9.134;2023-05-10T06:55:30;97652.41;;;14.74
6550;BMP280;15142;48.888;9.134;2023-05-10T06:57:59;97655.41;;;14.84
6550;BMP280;15142;48.888;9.134;2023-05-10T07:00:28;97665.22;;;14.90
6550;BMP280;15142;48.888;9.134;2023-05-10T07:02:59;97665.03;;;14.95
6550;BMP280;15142;48.888;9.134;2023-05-10T07:05:28;97663.69;;;14.89
6550;BMP280;15142;48.888;9.134;2023-05-10T07:07:57;97658.50;;;14.98
6550;BMP280;15142;48.888;9.134;2023-05-10T07:10:26;97664.50;;;15.10
6550;BMP280;15142;48.888;9.134;2023-05-10T07:12:55;97668.84;;;15.18
6550;BMP280;15142;48.888;9.134;2023-05-10T07:15:23;97671.72;;;15.16
6550;BMP280;15142;48.888;9.134;2023-05-10T07:17:52;97676.81;;;15.25
6550;BMP280;15142;48.888;9.134;2023-05-10T07:20:23;97682.41;;;15.27
6550;BMP280;15142;48.888;9.134;2023-05-10T07:22:52;97678.50;;;15.41
6550;BMP280;15142;48.888;9.134;2023-05-10T07:25:20;97677.16;;;15.43
6550;BMP280;15142;48.888;9.134;2023-05-10T07:27:49;97677.16;;;15.43
6550;BMP280;15142;48.888;9.134;2023-05-10T07:30:18;97675.13;;;15.29
6550;BMP280;15142;48.888;9.134;2023-05-10T07:32:46;97683.53;;;15.38
6550;BMP280;15142;48.888;9.134;2023-05-10T07:35:15;97674.78;;;15.59
6550;BMP280;15142;48.888;9.134;2023-05-10T07:37:46;97670.13;;;15.52
6550;BMP280;15142;48.888;9.134;2023-05-10T07:40:15;97676.88;;;15.37
6550;BMP280;15142;48.888;9.134;2023-05-10T07:42:43;97670.78;;;15.21
6550;BMP280;15142;48.888;9.134;2023-05-10T07:45:12;97674.50;;;15.32
6550;BMP280;15142;48.888;9.134;2023-05-10T07:47:41;97681.13;;;15.13
6550;BMP280;15142;48.888;9.134;2023-05-10T07:50:09;97679.00;;;15.15
6550;BMP280;15142;48.888;9.134;2023-05-10T07:52:38;97686.38;;;15.16
6550;BMP280;15142;48.888;9.134;2023-05-10T07:55:10;97695.47;;;15.42
6550;BMP280;15142;48.888;9.134;2023-05-10T07:57:38;97695.84;;;15.32
6550;BMP280;15142;48.888;9.134;2023-05-10T08:00:09;97692.56;;;15.43
6550;BMP280;15142;48.888;9.134;2023-05-10T08:02:40;97692.13;;;15.42
6550;BMP280;15142;48.888;9.134;2023-05-10T08:05:09;97686.75;;;15.35
6550;BMP280;15142;48.888;9.134;2023-05-10T08:07:37;97690.28;;;15.30
6550;BMP280;15142;48.888;9.134;2023-05-10T08:10:10;97695.75;;;15.20
6550;BMP280;15142;48.888;9.134;2023-05-10T08:12:39;97685.72;;;14.99
6550;BMP280;15142;48.888;9.134;2023-05-10T08:15:09;97690.72;;;14.95
6550;BMP280;15142;48.888;9.134;2023-05-10T08:17:38;97699.63;;;14.98
6550;BMP280;15142;48.888;9.134;2023-05-10T08:20:07;97689.50;;;15.01
6550;BMP280;15142;48.888;9.134;2023-05-10T08:22:37;97707.03;;;14.99
6550;BMP280;15142;48.888;9.134;2023-05-10T08:25:10;97697.81;;;14.98
6550;BMP280;15142;48.888;9.134;2023-05-10T08:27:38;97699.97;;;14.96
6550;BMP280;15142;48.888;9.134;2023-05-10T08:30:08;97708.78;;;14.87
6550;BMP280;15142;48.888;9.134;2023-05-10T08:32:37;97705.88;;;14.88
6550;BMP280;15142;48.888;9.134;2023-05-10T08:35:06;97706.69;;;14.81
6550;BMP280;15142;48.888;9.134;2023-05-10T08:37:35;97710.91;;;14.77
6550;BMP280;15142;48.888;9.134;2023-05-10T08:40:04;97711.34;;;14.79
6550;BMP280;15142;48.888;9.134;2023-05-10T08:42:36;97711.63;;;14.86
6550;BMP280;15142;48.888;9.134;2023-05-10T08:45:09;97712.66;;;14.93
6550;BMP280;15142;48.888;9.134;2023-05-10T08:47:38;97706.16;;;14.95
6550;BMP280;15142;48.888;9.134;2023-05-10T08:50:07;97712.00;;;15.04
6550;BMP280;15142;48.888;9.134;2023-05-10T08:52:38;97725.03;;;15.28
6550;BMP280;15142;48.888;9.134;2023-05-10T08:55:08;97716.00;;;15.50
6550;BMP280;15142;48.888;9.134;2023-05-10T08:57:40;97729.25;;;15.61
6550;BMP280;15142;48.888;9.134;2023-05-10T09:00:11;97724.84;;;15.61
6550;BMP280;15142;48.888;9.134;2023-05-10T09:02:40;97727.25;;;15.66
6550;BMP280;15142;48.888;9.134;2023-05-10T09:05:12;97729.19;;;15.69
6550;BMP280;15142;48.888;9.134;2023-05-10T09:07:41;97729.47;;;15.76
6550;BMP280;15142;48.888;9.134;2023-05-10T09:10:11;97731.63;;;15.66
6550;BMP280;15142;48.888;9.134;2023-05-10T09:12:42;97732.78;;;15.56
6550;BMP280;15142;48.888;9.134;2023-05-10T09:15:15;97733.16;;;15.67
6550;BMP280;15142;48.888;9.134;2023-05-10T09:17:45;97731.75;;;15.69
6550;BMP280;15142;48.888;9.134;2023-05-10T09:20:14;97740.44;;;15.65
6550;BMP280;15142;48.888;9.134;2023-05-10T09:22:43;97743.06;;;15.76
6550;BMP280;15142;48.888;9.134;2023-05-10T09:25:13;97736.53;;;15.79
6550;BMP280;15142;48.888;9.134;2023-05-10T09:27:45;97740.91;;;15.58
6550;BMP280;15142;48.888;9.134;2023-05-10T09:30:23;97748.22;;;15.76
6550;BMP280;15142;48.888;9.134;2023-05-10T09:32:53;97746.31;;;15.65
6550;BMP280;15142;48.888;9.134;2023-05-10T09:35:23;97750.22;;;16.11
6550;BMP280;15142;48.888;9.134;2023-05-10T09:37:53;97746.19;;;16.22
6550;BMP280;15142;48.888;9.134;2023-05-10T09:40:24;97740.16;;;16.18
6550;BMP280;15142;48.888;9.134;2023-05-10T09:42:57;97738.72;;;16.41
6550;BMP280;15142;48.888;9.134;2023-05-10T09:45:27;97744.75;;;16.45
6550;BMP280;15142;48.888;9.134;2023-05-10T09:47:56;97735.63;;;16.35
6550;BMP280;15142;48.888;9.134;2023-05-10T09:50:26;97743.66;;;16.34
6550;BMP280;15142;48.888;9.134;2023-05-10T09:52:56;97742.16;;;16.45
6550;BMP280;15142;48.888;9.134;2023-05-10T09:55:26;97741.13;;;16.46
6550;BMP280;15142;48.888;9.134;2023-05-10T09:58:08;97753.28;;;16.57
6550;BMP280;15142;48.888;9.134;2023-05-10T10:00:39;97749.44;;;16.43
6550;BMP280;15142;48.888;9.134;2023-05-10T10:03:13;97746.31;;;16.26
6550;BMP280;15142;48.888;9.134;2023-05-10T10:05:43;97742.69;;;15.86
6550;BMP280;15142;48.888;9.134;2023-05-10T10:08:13;97743.81;;;15.77
6550;BMP280;15142;48.888;9.134;2023-05-10T10:10:42;97752.41;;;15.81
6550;BMP280;15142;48.888;9.134;2023-05-10T10:13:14;97760.25;;;15.84
6550;BMP280;15142;48.888;9.134;2023-05-10T10:15:43;97754.75;;;15.94
6550;BMP280;15142;48.888;9.134;2023-05-10T10:18:17;97762.69;;;16.21
6550;BMP280;15142;48.888;9.134;2023-05-10T10:20:49;97751.19;;;16.19
6550;BMP280;15142;48.888;9.134;2023-05-10T10:23:18;97753.72;;;16.27
6550;BMP280;15142;48.888;9.134;2023-05-10T10:25:46;97756.09;;;16.32
6550;BMP280;15142;48.888;9.134;2023-05-10T10:28:26;97758.22;;;16.30
6550;BMP280;15142;48.888;9.134;2023-05-10T10:31:10;97751.91;;;16.39
6550;BMP280;15142;48.888;9.134;2023-05-10T10:33:54;97743.22;;;16.32
6550;BMP280;15142;48.888;9.134;2023-05-10T10:36:24;97737.63;;;16.30
6550;BMP280;15142;48.888;9.134;2023-05-10T10:38:57;97747.31;;;16.45
6550;BMP280;15142;48.888;9.134;2023-05-10T10:41:31;97747.94;;;16.62
6550;BMP280;15142;48.888;9.134;2023-05-10T10:44:32;97734.75;;;16.31
6550;BMP280;15142;48.888;9.134;2023-05-10T10:47:04;97746.28;;;16.57
6550;BMP280;15142;48.888;9.134;2023-05-10T10:49:38;97748.59;;;16.39
6550;BMP280;15142;48.888;9.134;2023-05-10T10:52:21;97752.34;;;16.29
6550;BMP280;15142;48.888;9.134;2023-05-10T10:54:57;97756.38;;;16.51
6550;BMP280;15142;48.888;9.134;2023-05-10T10:57:28;97759.19;;;16.05
6550;BMP280;15142;48.888;9.134;2023-05-10T11:00:29;97754.88;;;15.98
6550;BMP280;15142;48.888;9.134;2023-05-10T11:03:03;97759.38;;;16.00
6550;BMP280;15142;48.888;9.134;2023-05-10T11:05:39;97762.16;;;15.96
6550;BMP280;15142;48.888;9.134;2023-05-10T11:08:16;97758.19;;;15.98
6550;BMP280;15142;48.888;9.134;2023-05-10T11:10:52;97751.84;;;16.16
6550;BMP280;15142;48.888;9.134;2023-05-10T11:13:29;97762.03;;;16.44
6550;BMP280;15142;48.888;9.134;2023-05-10T11:16:13;97749.50;;;16.55
6550;BMP280;15142;48.888;9.134;2023-05-10T11:18:52;97752.75;;;16.87
6550;BMP280;15142;48.888;9.134;2023-05-10T11:21:21;97749.88;;;17.12
6550;BMP280;15142;48.888;9.134;2023-05-10T11:23:52;97755.25;;;16.83
6550;BMP280;15142;48.888;9.134;2023-05-10T11:26:22;97749.53;;;16.78
6550;BMP280;15142;48.888;9.134;2023-05-10T11:28:53;97747.44;;;17.27
6550;BMP280;15142;48.888;9.134;2023-05-10T11:31:25;97750.22;;;17.11
6550;BMP280;15142;48.888;9.134;2023-05-10T11:33:56;97750.63;;;17.36
6550;BMP280;15142;48.888;9.134;2023-05-10T11:36:26;97756.72;;;17.67
6550;BMP280;15142;48.888;9.134;2023-05-10T11:38:56;97756.03;;;18.21
6550;BMP280;15142;48.888;9.134;2023-05-10T11:41:26;97765.84;;;18.30
6550;BMP280;15142;48.888;9.134;2023-05-10T11:43:56;97750.56;;;18.25
6550;BMP280;15142;48.888;9.134;2023-05-10T11:46:28;97755.03;;;17.86
6550;BMP280;15142;48.888;9.134;2023-05-10T11:48:58;97765.81;;;17.76
6550;BMP280;15142;48.888;9.134;2023-05-10T11:51:33;97755.41;;;17.73
6550;BMP280;15142;48.888;9.134;2023-05-10T11:54:06;97753.78;;;17.68
6550;BMP280;15142;48.888;9.134;2023-05-10T11:56:36;97755.47;;;17.26
6550;BMP280;15142;48.888;9.134;2023-05-10T11:59:04;97762.53;;;16.70
6550;BMP280;15142;48.888;9.134;2023-05-10T12:01:36;97755.00;;;16.33
6550;BMP280;15142;48.888;9.134;2023-05-10T12:04:05;97754.69;;;16.34
6550;BMP280;15142;48.888;9.134;2023-05-10T12:06:37;97755.59;;;16.18
6550;BMP280;15142;48.888;9.134;2023-05-10T12:09:08;97759.50;;;16.24
6550;BMP280;15142;48.888;9.134;2023-05-10T12:11:38;97757.00;;;16.16
6550;BMP280;15142;48.888;9.134;2023-05-10T12:14:08;97747.84;;;16.06
6550;BMP280;15142;48.888;9.134;2023-05-10T12:16:39;97761.00;;;15.85
6550;BMP280;15142;48.888;9.134;2023-05-10T12:19:08;97769.44;;;15.94
6550;BMP280;15142;48.888;9.134;2023-05-10T12:21:39;97766.44;;;16.12
6550;BMP280;15142;48.888;9.134;2023-05-10T12:24:08;97772.56;;;16.19
6550;BMP280;15142;48.888;9.134;2023-05-10T12:26:36;97781.72;;;16.08
6550;BMP280;15142;48.888;9.134;2023-05-10T12:29:12;97786.47;;;16.06
6550;BMP280;15142;48.888;9.134;2023-05-10T12:31:54;97787.50;;;16.05
6550;BMP280;15142;48.888;9.134;2023-05-10T12:34:25;97790.16;;;15.97
6550;BMP280;15142;48.888;9.134;2023-05-10T12:36:54;97795.69;;;16.07
6550;BMP280;15142;48.888;9.134;2023-05-10T12:39:23;97790.88;;;16.38
6550;BMP280;15142;48.888;9.134;2023-05-10T12:41:52;97789.56;;;16.52
6550;BMP280;15142;48.888;9.134;2023-05-10T12:44:20;97787.50;;;16.46
6550;BMP280;15142;48.888;9.134;2023-05-10T12:46:49;97789.91;;;16.62
6550;BMP280;15142;48.888;9.134;2023-05-10T12:49:20;97790.56;;;16.28
6550;BMP280;15142;48.888;9.134;2023-05-10T12:51:48;97785.09;;;16.41
6550;BMP280;15142;48.888;9.134;2023-05-10T12:54:17;97789.56;;;16.52
6550;BMP280;15142;48.888;9.134;2023-05-10T12:56:45;97790.59;;;17.07
6550;BMP280;15142;48.888;9.134;2023-05-10T12:59:14;97801.69;;;17.42
6550;BMP280;15142;48.888;9.134;2023-05-10T13:01:43;97793.63;;;17.20
6550;BMP280;15142;48.888;9.134;2023-05-10T13:04:11;97800.28;;;16.98
6550;BMP280;15142;48.888;9.134;2023-05-10T13:06:42;97789.97;;;16.98
6550;BMP280;15142;48.888;9.134;2023-05-10T13:09:11;97793.44;;;17.25
6550;BMP280;15142;48.888;9.134;2023-05-10T13:11:41;97783.69;;;16.63
6550;BMP280;15142;48.888;9.134;2023-05-10T13:14:11;97792.91;;;16.64
6550;BMP280;15142;48.888;9.134;2023-05-10T13:16:40;97791.00;;;16.61
6550;BMP280;15142;48.888;9.134;2023-05-10T13:19:08;97790.72;;;16.86
6550;BMP280;15142;48.888;9.134;2023-05-10T13:21:37;97789.97;;;16.86
6550;BMP280;15142;48.888;9.134;2023-05-10T13:24:09;97775.78;;;16.92
6550;BMP280;15142;48.888;9.134;2023-05-10T13:26:39;97778.72;;;17.38
6550;BMP280;15142;48.888;9.134;2023-05-10T13:29:08;97779.47;;;17.38
6550;BMP280;15142;48.888;9.134;2023-05-10T13:31:36;97779.75;;;17.37
6550;BMP280;15142;48.888;9.134;2023-05-10T13:34:05;97781.69;;;17.16
6550;BMP280;15142;48.888;9.134;2023-05-10T13:36:34;97773.28;;;16.72
6550;BMP280;15142;48.888;9.134;2023-05-10T13:39:03;97779.97;;;16.84
6550;BMP280;15142;48.888;9.134;2023-05-10T13:41:34;97781.19;;;17.11
6550;BMP280;15142;48.888;9.134;2023-05-10T13:44:03;97781.41;;;17.06
6550;BMP280;15142;48.888;9.134;2023-05-10T13:46:32;97771.47;;;16.72
6550;BMP280;15142;48.888;9.134;2023-05-10T13:49:01;97775.34;;;17.02
6550;BMP280;15142;48.888;9.134;2023-05-10T13:51:29;97761.72;;;16.89
6550;BMP280;15142;48.888;9.134;2023-05-10T13:53:58;97767.06;;;16.96
6550;BMP280;15142;48.888;9.134;2023-05-10T13:56:26;97765.72;;;16.55
6550;BMP280;15142;48.888;9.134;2023-05-10T13:58:58;97766.09;;;16.65
6550;BMP280;15142;48.888;9.134;2023-05-10T14:01:27;97758.53;;;16.60
6550;BMP280;15142;48.888;9.134;2023-05-10T14:03:56;97760.94;;;16.65
6550;BMP280;15142;48.888;9.134;2023-05-10T14:06:25;97763.06;;;16.63
6550;BMP280;15142;48.888;9.134;2023-05-10T14:08:53;97760.25;;;16.68
6550;BMP280;15142;48.888;9.134;2023-05-10T14:11:22;97760.25;;;16.56
6550;BMP280;15142;48.888;9.134;2023-05-10T14:13:51;97760.56;;;16.55
6550;BMP280;15142;48.888;9.134;2023-05-10T14:16:22;97764.31;;;16.57
6550;BMP280;15142;48.888;9.134;2023-05-10T14:18:51;97760.88;;;16.54
6550;BMP280;15142;48.888;9.134;2023-05-10T14:21:20;97752.03;;;16.43
6550;BMP280;15142;48.888;9.134;2023-05-10T14:23:48;97756.72;;;16.29
6550;BMP280;15142;48.888;9.134;2023-05-10T14:26:17;97758.72;;;16.44
6550;BMP280;15142;48.888;9.134;2023-05-10T14:28:46;97753.03;;;16.50
6550;BMP280;15142;48.888;9.134;2023-05-10T14:31:14;97766.91;;;16.57
6550;BMP280;15142;48.888;9.134;2023-05-10T14:33:47;97766.47;;;16.56
6550;BMP280;15142;48.888;9.134;2023-05-10T14:36:16;97763.25;;;16.58
6550;BMP280;15142;48.888;9.134;2023-05-10T14:38:45;97756.38;;;16.51
6550;BMP280;15142;48.888;9.134;2023-05-10T14:41:15;97757.84;;;16.40
6550;BMP280;15142;48.888;9.134;2023-05-10T14:43:43;97766.09;;;16.65
6550;BMP280;15142;48.888;9.134;2023-05-10T14:46:12;97751.66;;;16.53